sensor_id;sensor_type;location;lat;lon;timestamp;pressure;altitude;pressure_sealevel;temperature;humidity
51829;BME280;37881;48.024;8.774;2023-02-22T00:01:13;93789.63;;;1.13;100.00
51829;BME280;37881;48.024;8.774;2023-02-22T00:03:58;93786.56;;;1.14;100.00
51829;BME280;37881;48.024;8.774;2023-02-22T00:06:25;93786.13;;;1.12;100.00
51829;BME280;37881;48.024;8.774;2023-02-22T00:08:52;93785.78;;;1.14;100.00
51829;BME280;37881;48.024;8.774;2023-02-22T00:11:19;93785.84;;;1.17;100.00
51829;BME280;37881;48.024;8.774;2023-02-22T00:13:46;93782.72;;;1.15;100.00
51829;BME280;37881;48.024;8.774;2023-02-22T00:16:20;93785.66;;;1.07;100.00
51829;BME280;37881;48.024;8.774;2023-02-22T00:18:48;93782.81;;;0.99;100.00
51829;BME280;37881;48.024;8.774;2023-02-22T00:21:16;93782.47;;;1.01;100.00
51829;BME280;37881;48.024;8.774;2023-02-22T00:23:45;93783.94;;;0.98;100.00
51829;BME280;37881;48.024;8.774;2023-02-22T00:26:14;93785.38;;;0.92;100.00
51829;BME280;37881;48.024;8.774;2023-02-22T00:28:49;93788.44;;;0.91;100.00
51829;BME280;37881;48.024;8.774;2023-02-22T00:31:16;93790.78;;;0.92;100.00
51829;BME280;37881;48.024;8.774;2023-02-22T00:33:44;93791.19;;;0.94;100.00
51829;BME280;37881;48.024;8.774;2023-02-22T00:36:12;93783.47;;;0.93;100.00
51829;BME280;37881;48.024;8.774;2023-02-22T00:38:40;93777.22;;;0.89;100.00
51829;BME280;37881;48.024;8.774;2023-02-22T00:41:08;93775.72;;;0.91;100.00
51829;BME280;37881;48.024;8.774;2023-02-22T00:43:35;93781.41;;;0.86;100.00
51829;BME280;37881;48.024;8.774;2023-02-22T00:46:02;93782.47;;;0.82;100.00
51829;BME280;37881;48.024;8.774;2023-02-22T00:48:29;93781.28;;;0.79;100.00
51829;BME280;37881;48.024;8.774;2023-02-22T00:50:55;93776.06;;;0.70;100.00
51829;BME280;37881;48.024;8.774;2023-02-22T00:53:23;93776.81;;;0.67;100.00
51829;BME280;37881;48.024;8.774;2023-02-22T00:55:51;93770.97;;;0.65;100.00
51829;BME280;37881;48.024;8.774;2023-02-22T00:58:18;93772.19;;;0.68;100.00
51829;BME280;37881;48.024;8.774;2023-02-22T01:00:45;93765.16;;;0.63;100.00
51829;BME280;37881;48.024;8.774;2023-02-22T01:03:15;93771.97;;;0.57;100.00
51829;BME280;37881;48.024;8.774;2023-02-22T01:05:43;93770.28;;;0.49;100.00
51829;BME280;37881;48.024;8.774;2023-02-22T01:08:11;93767.16;;;0.47;100.00
51829;BME280;37881;48.024;8.774;2023-02-22T01:10:39;93766.00;;;0.48;100.00
51829;BME280;37881;48.024;8.774;2023-02-22T01:13:07;93762.16;;;0.49;100.00
51829;BME280;37881;48.024;8.774;2023-02-22T01:15:38;93759.38;;;0.45;100.00
51829;BME280;37881;48.024;8.774;2023-02-22T01:18:05;93753.50;;;0.39;100.00
51829;BME280;37881;48.024;8.774;2023-02-22T01:20:33;93759.59;;;0.36;100.00
51829;BME280;37881;48.024;8.774;2023-02-22T01:23:01;93758.75;;;0.32;100.00
51829;BME280;37881;48.024;8.774;2023-02-22T01:25:30;93755.69;;;0.34;100.00
51829;BME280;37881;48.024;8.774;2023-02-22T01:27:58;93755.34;;;0.35;100.00
51829;BME280;37881;48.024;8.774;2023-02-22T01:30:29;93761.94;;;0.38;100.00
51829;BME280;37881;48.024;8.774;2023-02-22T01:32:56;93754.63;;;0.38;100.00
51829;BME280;37881;48.024;8.774;2023-02-22T01:35:27;93753.06;;;0.37;100.00
51829;BME280;37881;48.024;8.774;2023-02-22T01:37:55;93751.78;;;0.31;100.00
51829;BME280;37881;48.024;8.774;2023-02-22T01:40:29;93755.91;;;0.25;100.00
51829;BME280;37881;48.024;8.774;2023-02-22T01:42:59;93748.91;;;0.24;100.00
51829;BME280;37881;48.024;8.774;2023-02-22T01:48:08;93749.00;;;0.08;100.00
51829;BME280;37881;48.024;8.774;2023-02-22T01:50:41;93741.00;;;-0.04;100.00
51829;BME280;37881;48.024;8.774;2023-02-22T01:53:13;93737.19;;;-0.03;100.00
51829;BME280;37881;48.024;8.774;2023-02-22T01:55:42;93733.06;;;0.03;100.00
51829;BME280;37881;48.024;8.774;2023-02-22T01:58:10;93732.91;;;-0.04;100.00
51829;BME280;37881;48.024;8.774;2023-02-22T02:00:38;93733.00;;;-0.01;100.00
51829;BME280;37881;48.024;8.774;2023-02-22T02:03:16;93722.13;;;-0.04;100.00
51829;BME280;37881;48.024;8.774;2023-02-22T02:05:45;93724.75;;;-0.08;100.00
51829;BME280;37881;48.024;8.774;2023-02-22T02:11:06;93718.66;;;-0.05;100.00
51829;BME280;37881;48.024;8.774;2023-02-22T02:13:35;93709.28;;;-0.11;100.00
51829;BME280;37881;48.024;8.774;2023-02-22T02:16:02;93708.50;;;-0.11;100.00
51829;BME280;37881;48.024;8.774;2023-02-22T02:18:29;93708.78;;;-0.32;100.00
51829;BME280;37881;48.024;8.774;2023-02-22T02:21:17;93709.78;;;-0.41;100.00
51829;BME280;37881;48.024;8.774;2023-02-22T02:26:58;93696.81;;;-0.35;100.00
51829;BME280;37881;48.024;8.774;2023-02-22T02:37:48;93691.41;;;-0.35;100.00
51829;BME280;37881;48.024;8.774;2023-02-22T02:43:16;93680.41;;;-0.46;100.00
51829;BME280;37881;48.024;8.774;2023-02-22T02:45:50;93671.88;;;-0.48;100.00
51829;BME280;37881;48.024;8.774;2023-02-22T02:48:22;93672.31;;;-0.46;100.00
51829;BME280;37881;48.024;8.774;2023-02-22T02:50:52;93676.13;;;-0.47;100.00
51829;BME280;37881;48.024;8.774;2023-02-22T02:53:26;93677.31;;;-0.64;100.00
51829;BME280;37881;48.024;8.774;2023-02-22T02:55:58;93675.56;;;-0.56;100.00
51829;BME280;37881;48.024;8.774;2023-02-22T02:58:25;93662.84;;;-0.55;100.00
51829;BME280;37881;48.024;8.774;2023-02-22T03:00:54;93664.34;;;-0.58;100.00
51829;BME280;37881;48.024;8.774;2023-02-22T03:09:56;93663.94;;;-0.76;100.00
51829;BME280;37881;48.024;8.774;2023-02-22T03:12:38;93662.72;;;-0.78;100.00
51829;BME280;37881;48.024;8.774;2023-02-22T03:18:01;93653.69;;;-0.70;100.00
51829;BME280;37881;48.024;8.774;2023-02-22T03:20:46;93655.31;;;-0.66;100.00
51829;BME280;37881;48.024;8.774;2023-02-22T03:25:47;93654.09;;;-0.68;100.00
51829;BME280;37881;48.024;8.774;2023-02-22T03:28:19;93652.97;;;-0.67;100.00
51829;BME280;37881;48.024;8.774;2023-02-22T03:30:54;93654.97;;;-0.64;100.00
51829;BME280;37881;48.024;8.774;2023-02-22T03:33:34;93653.91;;;-0.59;100.00
51829;BME280;37881;48.024;8.774;2023-02-22T03:36:08;93660.41;;;-0.61;100.00
51829;BME280;37881;48.024;8.774;2023-02-22T03:38:39;93649.56;;;-0.64;100.00
51829;BME280;37881;48.024;8.774;2023-02-22T03:41:08;93654.59;;;-0.63;100.00
51829;BME280;37881;48.024;8.774;2023-02-22T03:43:39;93648.09;;;-0.62;100.00
51829;BME280;37881;48.024;8.774;2023-02-22T03:46:08;93644.63;;;-0.62;100.00
51829;BME280;37881;48.024;8.774;2023-02-22T03:48:50;93650.69;;;-0.65;100.00
51829;BME280;37881;48.024;8.774;2023-02-22T03:51:20;93654.09;;;-0.68;100.00
51829;BME280;37881;48.024;8.774;2023-02-22T03:53:47;93659.75;;;-0.73;100.00
51829;BME280;37881;48.024;8.774;2023-02-22T03:56:22;93659.75;;;-0.73;100.00
51829;BME280;37881;48.024;8.774;2023-02-22T03:58:51;93657.59;;;-0.84;100.00
51829;BME280;37881;48.024;8.774;2023-02-22T04:01:18;93658.03;;;-0.82;100.00
51829;BME280;37881;48.024;8.774;2023-02-22T04:03:45;93654.56;;;-0.82;100.00
51829;BME280;37881;48.024;8.774;2023-02-22T04:06:12;93652.13;;;-0.87;100.00
51829;BME280;37881;48.024;8.774;2023-02-22T04:08:38;93657.59;;;-0.84;100.00
51829;BME280;37881;48.024;8.774;2023-02-22T04:11:05;93650.28;;;-0.83;100.00
51829;BME280;37881;48.024;8.774;2023-02-22T04:13:32;93654.47;;;-0.86;100.00
51829;BME280;37881;48.024;8.774;2023-02-22T04:15:59;93652.22;;;-0.84;100.00
51829;BME280;37881;48.024;8.774;2023-02-22T04:18:25;93654.56;;;-0.82;100.00
51829;BME280;37881;48.024;8.774;2023-02-22T04:20:52;93659.16;;;-0.83;100.00
51829;BME280;37881;48.024;8.774;2023-02-22T04:23:19;93648.31;;;-0.86;100.00
51829;BME280;37881;48.024;8.774;2023-02-22T04:25:45;93650.56;;;-0.88;100.00
51829;BME280;37881;48.024;8.774;2023-02-22T04:28:12;93655.59;;;-0.87;100.00
51829;BME280;37881;48.024;8.774;2023-02-22T04:30:39;93642.50;;;-0.88;100.00
51829;BME280;37881;48.024;8.774;2023-02-22T04:33:06;93650.13;;;-0.90;100.00
51829;BME280;37881;48.024;8.774;2023-02-22T04:35:33;93638.50;;;-0.94;100.00
51829;BME280;37881;48.024;8.774;2023-02-22T04:38:01;93651.44;;;-1.00;100.00
51829;BME280;37881;48.024;8.774;2023-02-22T04:40:29;93654.66;;;-1.10;100.00
51829;BME280;37881;48.024;8.774;2023-02-22T04:42:56;93649.88;;;-1.17;100.00
51829;BME280;37881;48.024;8.774;2023-02-22T04:45:23;93652.66;;;-1.13;100.00
51829;BME280;37881;48.024;8.774;2023-02-22T04:47:50;93655.34;;;-1.13;100.00
51829;BME280;37881;48.024;8.774;2023-02-22T04:50:16;93651.16;;;-1.11;100.00
51829;BME280;37881;48.024;8.774;2023-02-22T04:52:44;93646.59;;;-1.10;100.00
51829;BME280;37881;48.024;8.774;2023-02-22T04:55:11;93640.41;;;-1.11;100.00
51829;BME280;37881;48.024;8.774;2023-02-22T04:57:37;93640.84;;;-1.09;100.00
51829;BME280;37881;48.024;8.774;2023-02-22T05:00:05;93641.09;;;-1.14;100.00
51829;BME280;37881;48.024;8.774;2023-02-22T05:02:31;93640.75;;;-1.12;100.00
51829;BME280;37881;48.024;8.774;2023-02-22T05:04:58;93647.69;;;-1.11;100.00
51829;BME280;37881;48.024;8.774;2023-02-22T05:07:25;93643.81;;;-1.14;100.00
51829;BME280;37881;48.024;8.774;2023-02-22T05:09:51;93641.78;;;-1.17;100.00
51829;BME280;37881;48.024;8.774;2023-02-22T05:12:18;93644.84;;;-1.18;100.00
51829;BME280;37881;48.024;8.774;2023-02-22T05:14:45;93636.34;;;-1.21;100.00
51829;BME280;37881;48.024;8.774;2023-02-22T05:17:11;93641.44;;;-1.15;100.00
51829;BME280;37881;48.024;8.774;2023-02-22T05:19:38;93634.94;;;-1.14;100.00
51829;BME280;37881;48.024;8.774;2023-02-22T05:22:06;93636.94;;;-1.11;100.00
51829;BME280;37881;48.024;8.774;2023-02-22T05:24:33;93635.00;;;-1.11;100.00
51829;BME280;37881;48.024;8.774;2023-02-22T05:27:00;93639.38;;;-1.06;100.00
51829;BME280;37881;48.024;8.774;2023-02-22T05:29:27;93634.94;;;-1.14;100.00
51829;BME280;37881;48.024;8.774;2023-02-22T05:31:53;93640.00;;;-1.29;100.00
51829;BME280;37881;48.024;8.774;2023-02-22T05:34:20;93631.72;;;-1.36;100.00
51829;BME280;37881;48.024;8.774;2023-02-22T05:36:47;93629.81;;;-1.35;100.00
51829;BME280;37881;48.024;8.774;2023-02-22T05:39:15;93627.97;;;-1.31;100.00
51829;BME280;37881;48.024;8.774;2023-02-22T05:41:41;93631.81;;;-1.32;100.00
51829;BME280;37881;48.024;8.774;2023-02-22T05:44:08;93626.34;;;-1.36;100.00
51829;BME280;37881;48.024;8.774;2023-02-22T05:46:35;93627.22;;;-1.32;100.00
51829;BME280;37881;48.024;8.774;2023-02-22T05:49:02;93620.00;;;-1.28;100.00
51829;BME280;37881;48.024;8.774;2023-02-22T05:51:28;93622.06;;;-1.21;100.00
51829;BME280;37881;48.024;8.774;2023-02-22T05:53:55;93624.78;;;-1.21;100.00
51829;BME280;37881;48.024;8.774;2023-02-22T05:56:24;93629.47;;;-1.50;100.00
51829;BME280;37881;48.024;8.774;2023-02-22T05:58:51;93621.72;;;-1.51;100.00
51829;BME280;37881;48.024;8.774;2023-02-22T06:01:18;93619.91;;;-1.47;100.00
51829;BME280;37881;48.024;8.774;2023-02-22T06:03:49;93622.00;;;-1.41;100.00
51829;BME280;37881;48.024;8.774;2023-02-22T06:06:17;93618.38;;;-1.32;100.00
51829;BME280;37881;48.024;8.774;2023-02-22T06:08:47;93618.38;;;-1.32;100.00
51829;BME280;37881;48.024;8.774;2023-02-22T06:11:14;93611.94;;;-1.28;100.00
51829;BME280;37881;48.024;8.774;2023-02-22T06:13:48;93615.75;;;-1.29;100.00
51829;BME280;37881;48.024;8.774;2023-02-22T06:16:15;93623.56;;;-1.24;100.00
51829;BME280;37881;48.024;8.774;2023-02-22T06:18:42;93621.06;;;-1.16;100.00
51829;BME280;37881;48.024;8.774;2023-02-22T06:21:08;93612.34;;;-1.10;100.00
51829;BME280;37881;48.024;8.774;2023-02-22T06:23:35;93612.09;;;-1.05;100.00
51829;BME280;37881;48.024;8.774;2023-02-22T06:26:02;93617.63;;;-0.97;100.00
51829;BME280;37881;48.024;8.774;2023-02-22T06:28:29;93616.56;;;-0.93;100.00
51829;BME280;37881;48.024;8.774;2023-02-22T06:30:56;93619.28;;;-0.93;100.00
51829;BME280;37881;48.024;8.774;2023-02-22T06:33:22;93615.91;;;-1.06;100.00
51829;BME280;37881;48.024;8.774;2023-02-22T06:35:49;93616.78;;;-1.02;100.00
51829;BME280;37881;48.024;8.774;2023-02-22T06:38:23;93625.03;;;-0.94;100.00
51829;BME280;37881;48.024;8.774;2023-02-22T06:40:50;93622.22;;;-0.82;100.00
51829;BME280;37881;48.024;8.774;2023-02-22T06:43:17;93618.56;;;-0.74;100.00
51829;BME280;37881;48.024;8.774;2023-02-22T06:45:44;93633.41;;;-0.64;100.00
51829;BME280;37881;48.024;8.774;2023-02-22T06:48:11;93628.50;;;-0.58;100.00
51829;BME280;37881;48.024;8.774;2023-02-22T06:50:38;93636.41;;;-0.50;100.00
51829;BME280;37881;48.024;8.774;2023-02-22T06:53:05;93630.13;;;-0.38;100.00
51829;BME280;37881;48.024;8.774;2023-02-22T06:55:33;93637.50;;;-0.35;100.00
51829;BME280;37881;48.024;8.774;2023-02-22T06:58:01;93635.50;;;-0.38;100.00
51829;BME280;37881;48.024;8.774;2023-02-22T07:00:30;93637.69;;;-0.44;100.00
51829;BME280;37881;48.024;8.774;2023-02-22T07:02:58;93641.47;;;-0.29;100.00
51829;BME280;37881;48.024;8.774;2023-02-22T07:05:26;93636.94;;;-0.05;100.00
51829;BME280;37881;48.024;8.774;2023-02-22T07:07:54;93638.44;;;-0.08;100.00
51829;BME280;37881;48.024;8.774;2023-02-22T07:10:28;93632.41;;;-0.01;100.00
51829;BME280;37881;48.024;8.774;2023-02-22T07:12:55;93638.56;;;-0.01;100.00
51829;BME280;37881;48.024;8.774;2023-02-22T07:15:23;93643.03;;;-0.28;100.00
51829;BME280;37881;48.024;8.774;2023-02-22T07:17:51;93635.31;;;0.10;100.00
51829;BME280;37881;48.024;8.774;2023-02-22T07:20:19;93634.88;;;0.27;100.00
51829;BME280;37881;48.024;8.774;2023-02-22T07:22:48;93643.22;;;0.42;100.00
51829;BME280;37881;48.024;8.774;2023-02-22T07:25:15;93645.91;;;0.61;100.00
51829;BME280;37881;48.024;8.774;2023-02-22T07:27:42;93641.53;;;0.99;100.00
51829;BME280;37881;48.024;8.774;2023-02-22T07:30:24;93638.72;;;1.15;100.00
51829;BME280;37881;48.024;8.774;2023-02-22T07:32:53;93646.84;;;1.18;100.00
51829;BME280;37881;48.024;8.774;2023-02-22T07:35:28;93642.03;;;2.52;100.00
51829;BME280;37881;48.024;8.774;2023-02-22T07:37:55;93645.63;;;3.05;100.00
51829;BME280;37881;48.024;8.774;2023-02-22T07:40:24;93634.13;;;4.69;96.17
51829;BME280;37881;48.024;8.774;2023-02-22T07:45:40;93641.41;;;3.59;99.69
51829;BME280;37881;48.024;8.774;2023-02-22T07:48:07;93634.66;;;4.01;98.21
51829;BME280;37881;48.024;8.774;2023-02-22T07:50:34;93630.72;;;3.88;94.87
51829;BME280;37881;48.024;8.774;2023-02-22T07:53:03;93629.19;;;3.31;98.74
51829;BME280;37881;48.024;8.774;2023-02-22T07:55:32;93633.97;;;3.49;98.40
51829;BME280;37881;48.024;8.774;2023-02-22T07:58:01;93632.16;;;2.71;100.00
51829;BME280;37881;48.024;8.774;2023-02-22T08:00:34;93626.09;;;3.33;100.00
51829;BME280;37881;48.024;8.774;2023-02-22T08:03:03;93634.81;;;3.60;99.65
51829;BME280;37881;48.024;8.774;2023-02-22T08:05:32;93629.56;;;3.92;97.18
51829;BME280;37881;48.024;8.774;2023-02-22T08:07:59;93629.88;;;3.73;97.96
51829;BME280;37881;48.024;8.774;2023-02-22T08:10:26;93624.78;;;3.68;97.28
51829;BME280;37881;48.024;8.774;2023-02-22T08:12:53;93618.56;;;3.64;100.00
51829;BME280;37881;48.024;8.774;2023-02-22T08:15:27;93625.28;;;5.40;92.13
51829;BME280;37881;48.024;8.774;2023-02-22T08:17:56;93623.41;;;7.28;84.06
51829;BME280;37881;48.024;8.774;2023-02-22T08:20:23;93614.50;;;9.80;66.59
51829;BME280;37881;48.024;8.774;2023-02-22T08:22:50;93612.06;;;12.37;55.02
51829;BME280;37881;48.024;8.774;2023-02-22T08:25:19;93616.44;;;11.89;52.71
51829;BME280;37881;48.024;8.774;2023-02-22T08:27:47;93605.88;;;10.22;56.71
51829;BME280;37881;48.024;8.774;2023-02-22T08:30:19;93609.38;;;11.72;54.61
51829;BME280;37881;48.024;8.774;2023-02-22T08:32:47;93605.41;;;11.56;52.05
51829;BME280;37881;48.024;8.774;2023-02-22T08:35:15;93603.66;;;12.70;50.34
51829;BME280;37881;48.024;8.774;2023-02-22T08:37:43;93594.13;;;13.01;50.18
51829;BME280;37881;48.024;8.774;2023-02-22T08:40:11;93598.69;;;12.07;51.80
51829;BME280;37881;48.024;8.774;2023-02-22T08:42:40;93597.31;;;11.16;54.24
51829;BME280;37881;48.024;8.774;2023-02-22T08:45:07;93601.22;;;11.35;54.53
51829;BME280;37881;48.024;8.774;2023-02-22T08:47:34;93587.56;;;12.27;52.07
51829;BME280;37881;48.024;8.774;2023-02-22T08:50:01;93592.03;;;11.58;53.25
51829;BME280;37881;48.024;8.774;2023-02-22T08:52:28;93587.81;;;11.70;54.32
51829;BME280;37881;48.024;8.774;2023-02-22T08:54:54;93583.66;;;12.95;51.33
51829;BME280;37881;48.024;8.774;2023-02-22T08:57:21;93584.56;;;13.44;48.79
51829;BME280;37881;48.024;8.774;2023-02-22T08:59:48;93580.22;;;12.66;51.23
51829;BME280;37881;48.024;8.774;2023-02-22T09:02:16;93583.53;;;13.89;49.01
51829;BME280;37881;48.024;8.774;2023-02-22T09:04:43;93578.69;;;14.50;48.73
51829;BME280;37881;48.024;8.774;2023-02-22T09:07:10;93580.91;;;17.19;42.52
51829;BME280;37881;48.024;8.774;2023-02-22T09:09:37;93566.59;;;19.48;38.87
51829;BME280;37881;48.024;8.774;2023-02-22T09:12:04;93568.34;;;21.30;33.70
51829;BME280;37881;48.024;8.774;2023-02-22T09:14:31;93570.50;;;19.86;36.13
51829;BME280;37881;48.024;8.774;2023-02-22T09:16:57;93566.47;;;20.08;35.76
51829;BME280;37881;48.024;8.774;2023-02-22T09:19:24;93559.50;;;21.32;33.52
51829;BME280;37881;48.024;8.774;2023-02-22T09:21:55;93556.13;;;22.29;31.57
51829;BME280;37881;48.024;8.774;2023-02-22T09:24:23;93558.25;;;18.11;37.24
51829;BME280;37881;48.024;8.774;2023-02-22T09:26:49;93557.97;;;18.09;38.37
51829;BME280;37881;48.024;8.774;2023-02-22T09:29:23;93558.75;;;17.85;38.40
51829;BME280;37881;48.024;8.774;2023-02-22T09:31:52;93557.97;;;19.31;36.60
51829;BME280;37881;48.024;8.774;2023-02-22T09:34:21;93556.66;;;17.28;40.22
51829;BME280;37881;48.024;8.774;2023-02-22T09:36:55;93557.22;;;15.79;42.50
51829;BME280;37881;48.024;8.774;2023-02-22T09:39:23;93564.47;;;15.86;43.02
51829;BME280;37881;48.024;8.774;2023-02-22T09:44:35;93552.16;;;18.46;39.50
51829;BME280;37881;48.024;8.774;2023-02-22T09:47:15;93549.78;;;19.72;36.76
51829;BME280;37881;48.024;8.774;2023-02-22T09:49:57;93549.00;;;20.28;35.10
51829;BME280;37881;48.024;8.774;2023-02-22T09:52:35;93544.56;;;21.35;33.62
51829;BME280;37881;48.024;8.774;2023-02-22T09:57:41;93540.41;;;20.99;33.11
51829;BME280;37881;48.024;8.774;2023-02-22T10:00:13;93541.41;;;21.85;31.76
51829;BME280;37881;48.024;8.774;2023-02-22T10:02:57;93540.91;;;20.09;34.30
51829;BME280;37881;48.024;8.774;2023-02-22T10:05:31;93535.06;;;21.21;33.44
51829;BME280;37881;48.024;8.774;2023-02-22T10:08:02;93536.16;;;21.61;31.73
51829;BME280;37881;48.024;8.774;2023-02-22T10:10:35;93539.50;;;21.07;32.76
51829;BME280;37881;48.024;8.774;2023-02-22T10:13:18;93539.44;;;18.15;36.60
51829;BME280;37881;48.024;8.774;2023-02-22T10:18:49;93534.69;;;21.40;32.43
51829;BME280;37881;48.024;8.774;2023-02-22T10:26:43;93517.66;;;24.83;26.67
51829;BME280;37881;48.024;8.774;2023-02-22T10:29:38;93514.19;;;23.23;29.17
51829;BME280;37881;48.024;8.774;2023-02-22T10:32:14;93513.81;;;26.38;25.99
51829;BME280;37881;48.024;8.774;2023-02-22T10:34:47;93509.16;;;27.41;24.29
51829;BME280;37881;48.024;8.774;2023-02-22T10:37:29;93513.69;;;24.62;26.07
51829;BME280;37881;48.024;8.774;2023-02-22T10:40:18;93511.41;;;24.60;27.31
51829;BME280;37881;48.024;8.774;2023-02-22T10:43:02;93507.81;;;25.73;25.95
51829;BME280;37881;48.024;8.774;2023-02-22T10:45:31;93496.63;;;23.79;27.51
51829;BME280;37881;48.024;8.774;2023-02-22T10:48:03;93502.31;;;25.62;25.89
51829;BME280;37881;48.024;8.774;2023-02-22T10:50:35;93503.63;;;25.25;26.11
51829;BME280;37881;48.024;8.774;2023-02-22T10:53:02;93495.84;;;23.72;27.81
51829;BME280;37881;48.024;8.774;2023-02-22T10:55:29;93491.78;;;23.51;27.98
51829;BME280;37881;48.024;8.774;2023-02-22T10:58:02;93491.78;;;23.11;28.84
51829;BME280;37881;48.024;8.774;2023-02-22T11:00:35;93486.13;;;25.74;26.44
51829;BME280;37881;48.024;8.774;2023-02-22T11:03:16;93476.09;;;26.27;24.78
51829;BME280;37881;48.024;8.774;2023-02-22T11:05:44;93480.75;;;26.68;24.04
51829;BME280;37881;48.024;8.774;2023-02-22T11:10:59;93479.94;;;27.06;24.14
51829;BME280;37881;48.024;8.774;2023-02-22T11:13:36;93490.16;;;25.78;25.00
51829;BME280;37881;48.024;8.774;2023-02-22T11:16:20;93483.53;;;26.25;25.18
51829;BME280;37881;48.024;8.774;2023-02-22T11:19:00;93477.53;;;23.43;28.62
51829;BME280;37881;48.024;8.774;2023-02-22T11:21:29;93476.00;;;21.66;31.36
51829;BME280;37881;48.024;8.774;2023-02-22T11:24:07;93485.06;;;19.27;35.69
51829;BME280;37881;48.024;8.774;2023-02-22T11:26:47;93469.84;;;20.92;33.95
51829;BME280;37881;48.024;8.774;2023-02-22T11:29:21;93460.50;;;21.59;32.69
51829;BME280;37881;48.024;8.774;2023-02-22T11:31:50;93459.72;;;21.59;32.28
51829;BME280;37881;48.024;8.774;2023-02-22T11:34:31;93468.34;;;18.47;36.49
51829;BME280;37881;48.024;8.774;2023-02-22T11:37:32;93460.56;;;18.66;36.38
51829;BME280;37881;48.024;8.774;2023-02-22T11:42:38;93453.03;;;19.32;35.32
51829;BME280;37881;48.024;8.774;2023-02-22T11:45:21;93456.97;;;17.01;38.04
51829;BME280;37881;48.024;8.774;2023-02-22T11:47:58;93446.75;;;18.57;35.22
51829;BME280;37881;48.024;8.774;2023-02-22T11:56:12;93443.97;;;22.10;28.29
51829;BME280;37881;48.024;8.774;2023-02-22T12:01:43;93444.09;;;16.79;35.47
51829;BME280;37881;48.024;8.774;2023-02-22T12:07:06;93442.47;;;17.87;33.51
51829;BME280;37881;48.024;8.774;2023-02-22T12:10:13;93432.78;;;16.49;35.07
51829;BME280;37881;48.024;8.774;2023-02-22T12:19:02;93438.50;;;14.85;37.95
51829;BME280;37881;48.024;8.774;2023-02-22T12:21:37;93438.34;;;14.04;39.50
51829;BME280;37881;48.024;8.774;2023-02-22T12:24:16;93436.94;;;15.43;37.51
51829;BME280;37881;48.024;8.774;2023-02-22T12:26:52;93436.06;;;14.25;40.04
51829;BME280;37881;48.024;8.774;2023-02-22T12:29:25;93429.50;;;14.63;38.68
51829;BME280;37881;48.024;8.774;2023-02-22T12:32:04;93428.69;;;16.17;35.96
51829;BME280;37881;48.024;8.774;2023-02-22T12:34:42;93424.56;;;15.85;35.94
51829;BME280;37881;48.024;8.774;2023-02-22T12:38:33;93417.41;;;16.39;35.56
51829;BME280;37881;48.024;8.774;2023-02-22T12:40:38;93427.81;;;16.63;35.38
51829;BME280;37881;48.024;8.774;2023-02-22T12:43:27;93421.03;;;16.82;35.20
51829;BME280;37881;48.024;8.774;2023-02-22T12:46:09;93428.28;;;16.61;36.08
51829;BME280;37881;48.024;8.774;2023-02-22T12:48:48;93412.19;;;16.93;35.08
51829;BME280;37881;48.024;8.774;2023-02-22T12:54:17;93416.09;;;16.07;37.03
51829;BME280;37881;48.024;8.774;2023-02-22T12:57:22;93419.28;;;16.42;37.17
51829;BME280;37881;48.024;8.774;2023-02-22T12:59:55;93421.75;;;16.40;37.77
51829;BME280;37881;48.024;8.774;2023-02-22T13:02:42;93418.22;;;16.21;37.83
51829;BME280;37881;48.024;8.774;2023-02-22T13:05:14;93415.56;;;16.97;35.82
51829;BME280;37881;48.024;8.774;2023-02-22T13:16:18;93409.38;;;15.80;43.69
51829;BME280;37881;48.024;8.774;2023-02-22T13:19:07;93409.22;;;15.84;45.37
51829;BME280;37881;48.024;8.774;2023-02-22T13:24:25;93408.59;;;15.80;45.43
51829;BME280;37881;48.024;8.774;2023-02-22T13:27:00;93404.78;;;15.09;46.52
51829;BME280;37881;48.024;8.774;2023-02-22T13:29:48;93404.53;;;15.25;42.75
51829;BME280;37881;48.024;8.774;2023-02-22T13:34:59;93405.03;;;15.51;43.93
51829;BME280;37881;48.024;8.774;2023-02-22T13:37:37;93411.13;;;15.18;42.84
51829;BME280;37881;48.024;8.774;2023-02-22T13:43:14;93405.09;;;15.11;47.10
51829;BME280;37881;48.024;8.774;2023-02-22T13:54:07;93408.28;;;14.28;50.57
51829;BME280;37881;48.024;8.774;2023-02-22T13:56:34;93408.19;;;14.10;51.70
51829;BME280;37881;48.024;8.774;2023-02-22T13:59:02;93412.00;;;14.34;52.08
51829;BME280;37881;48.024;8.774;2023-02-22T14:07:01;93404.47;;;14.97;50.11
51829;BME280;37881;48.024;8.774;2023-02-22T14:09:46;93407.41;;;14.63;50.19
51829;BME280;37881;48.024;8.774;2023-02-22T14:15:18;93407.03;;;15.42;48.10
51829;BME280;37881;48.024;8.774;2023-02-22T14:20:23;93412.00;;;14.56;48.69
51829;BME280;37881;48.024;8.774;2023-02-22T14:23:26;93407.97;;;14.26;50.98
51829;BME280;37881;48.024;8.774;2023-02-22T14:25:44;93407.00;;;14.73;50.20
51829;BME280;37881;48.024;8.774;2023-02-22T14:29:13;93414.72;;;14.88;49.78
51829;BME280;37881;48.024;8.774;2023-02-22T14:34:10;93407.75;;;15.33;48.99
51829;BME280;37881;48.024;8.774;2023-02-22T14:36:58;93404.88;;;15.46;47.96
51829;BME280;37881;48.024;8.774;2023-02-22T14:39:37;93405.78;;;15.43;46.06
51829;BME280;37881;48.024;8.774;2023-02-22T14:42:09;93410.31;;;15.09;46.96
51829;BME280;37881;48.024;8.774;2023-02-22T14:47:33;93413.56;;;15.16;46.20
51829;BME280;37881;48.024;8.774;2023-02-22T14:50:26;93400.09;;;15.37;45.72
51829;BME280;37881;48.024;8.774;2023-02-22T14:53:21;93411.72;;;15.13;46.57
51829;BME280;37881;48.024;8.774;2023-02-22T14:56:00;93408.25;;;15.50;45.89
51829;BME280;37881;48.024;8.774;2023-02-22T15:00:57;93411.66;;;14.95;48.37
51829;BME280;37881;48.024;8.774;2023-02-22T15:03:27;93412.81;;;15.16;48.29
51829;BME280;37881;48.024;8.774;2023-02-22T15:08:41;93410.94;;;15.04;48.44
51829;BME280;37881;48.024;8.774;2023-02-22T15:11:28;93411.16;;;14.78;49.35
51829;BME280;37881;48.024;8.774;2023-02-22T15:13:57;93407.91;;;14.39;50.52
51829;BME280;37881;48.024;8.774;2023-02-22T15:16:27;93407.13;;;14.07;51.71
51829;BME280;37881;48.024;8.774;2023-02-22T15:18:57;93413.72;;;13.88;52.32
51829;BME280;37881;48.024;8.774;2023-02-22T15:21:27;93407.22;;;13.59;52.22